createdAt,value
2018-06-17T00:02:00.358Z,17.73
2018-06-17T00:04:28.159Z,17.47
2018-06-17T00:06:55.969Z,17.77
2018-06-17T00:09:23.813Z,18.70
2018-06-17T00:11:51.438Z,20.87
2018-06-17T00:14:19.215Z,20.87
2018-06-17T00:16:46.970Z,19.93
2018-06-17T00:19:14.755Z,20.53
2018-06-17T00:21:42.562Z,20.83
2018-06-17T00:24:10.320Z,19.97
2018-06-17T00:26:38.070Z,20.53
2018-06-17T00:29:05.918Z,20.03
2018-06-17T00:31:33.614Z,19.27
2018-06-17T00:34:01.385Z,18.80
2018-06-17T00:36:29.125Z,19.87
2018-06-17T00:38:56.866Z,19.10
2018-06-17T00:41:24.619Z,19.37
2018-06-17T00:43:52.355Z,20.17
2018-06-17T00:46:20.111Z,20.90
2018-06-17T00:48:47.806Z,21.37
2018-06-17T00:51:15.645Z,19.93
2018-06-17T00:53:43.391Z,20.13
2018-06-17T00:56:11.126Z,21.23
2018-06-17T00:58:38.887Z,20.53
2018-06-17T01:01:06.876Z,20.53
2018-06-17T01:03:34.670Z,20.20
2018-06-17T01:06:02.429Z,21.73
2018-06-17T01:08:30.146Z,21.07
2018-06-17T01:10:57.993Z,21.50
2018-06-17T01:13:26.026Z,19.53
2018-06-17T01:15:53.730Z,19.63
2018-06-17T01:18:21.470Z,18.83
2018-06-17T01:20:49.314Z,20.70
2018-06-17T01:23:17.034Z,20.30
2018-06-17T01:25:44.781Z,20.20
2018-06-17T01:28:12.533Z,18.60
2018-06-17T01:30:40.223Z,19.50
2018-06-17T01:33:08.071Z,19.67
2018-06-17T01:35:35.746Z,21.10
2018-06-17T01:38:03.570Z,19.87
2018-06-17T01:40:31.302Z,18.20
2018-06-17T01:42:59.172Z,19.07
2018-06-17T01:45:26.950Z,19.23
2018-06-17T01:47:54.718Z,18.20
2018-06-17T01:50:22.473Z,18.30
2018-06-17T01:52:50.313Z,20.03
2018-06-17T01:55:18.636Z,21.07
2018-06-17T01:57:46.436Z,18.80
2018-06-17T02:00:14.174Z,17.97
2018-06-17T02:02:41.939Z,18.47
2018-06-17T02:05:15.250Z,19.00
2018-06-17T02:07:48.697Z,18.80
2018-06-17T02:10:21.948Z,20.97
2018-06-17T02:12:49.667Z,19.17
2018-06-17T02:15:17.389Z,20.80
2018-06-17T02:17:45.140Z,20.47
2018-06-17T02:20:12.891Z,20.67
2018-06-17T02:22:40.759Z,20.63
2018-06-17T02:25:08.497Z,20.53
2018-06-17T02:27:36.270Z,20.27
2018-06-17T02:30:04.205Z,19.27
2018-06-17T02:32:31.936Z,19.07
2018-06-17T02:34:59.836Z,19.93
2018-06-17T02:37:27.530Z,19.97
2018-06-17T02:39:55.838Z,19.77
2018-06-17T02:42:23.598Z,17.40
2018-06-17T02:44:56.868Z,20.27
2018-06-17T02:47:30.172Z,18.37
2018-06-17T02:50:02.487Z,19.90
2018-06-17T02:52:36.002Z,23.97
2018-06-17T02:55:03.762Z,19.90
2018-06-17T02:57:31.612Z,19.00
2018-06-17T02:59:59.360Z,19.77
2018-06-17T03:02:27.186Z,19.40
2018-06-17T03:04:54.867Z,19.73
2018-06-17T03:07:22.569Z,18.30
2018-06-17T03:09:50.298Z,19.67
2018-06-17T03:12:18.075Z,19.33
2018-06-17T03:14:45.823Z,19.53
2018-06-17T03:17:13.660Z,18.40
2018-06-17T03:19:41.383Z,18.63
2018-06-17T03:22:09.154Z,19.97
2018-06-17T03:24:42.651Z,17.93
2018-06-17T03:27:15.875Z,19.30
2018-06-17T03:29:49.147Z,19.30
2018-06-17T03:32:22.615Z,18.80
2018-06-17T03:34:55.741Z,20.87
2018-06-17T03:37:23.434Z,19.90
2018-06-17T03:39:51.208Z,18.00
2018-06-17T03:42:18.933Z,18.90
2018-06-17T03:44:46.671Z,18.50
2018-06-17T03:47:14.383Z,17.30
2018-06-17T03:49:42.219Z,18.27
2018-06-17T03:52:09.946Z,18.70
2018-06-17T03:54:37.548Z,14.70
2018-06-17T03:57:05.213Z,12.43
2018-06-17T03:59:33.008Z,12.70
2018-06-17T04:02:00.731Z,11.90
2018-06-17T04:04:28.575Z,11.97
2018-06-17T04:06:56.342Z,12.27
2018-06-17T04:09:24.062Z,14.27
2018-06-17T04:11:51.814Z,14.27
2018-06-17T04:14:19.487Z,15.47
2018-06-17T04:16:47.269Z,16.30
2018-06-17T04:19:14.943Z,15.73
2018-06-17T04:21:42.845Z,15.57
2018-06-17T04:24:10.547Z,15.50
2018-06-17T04:26:38.282Z,15.10
2018-06-17T04:29:06.302Z,14.57
2018-06-17T04:31:34.070Z,13.50
2018-06-17T04:34:01.761Z,12.43
2018-06-17T04:36:29.563Z,14.07
2018-06-17T04:38:57.350Z,13.83
2018-06-17T04:41:25.139Z,12.13
2018-06-17T04:43:52.869Z,13.80
2018-06-17T04:46:20.665Z,13.77
2018-06-17T04:48:48.414Z,13.17
2018-06-17T04:51:16.393Z,12.53
2018-06-17T04:53:44.171Z,11.93
2018-06-17T04:56:11.903Z,11.93
2018-06-17T04:58:39.795Z,10.00
2018-06-17T05:01:07.573Z,10.50
2018-06-17T05:03:35.272Z,10.77
2018-06-17T05:06:02.961Z,9.87
2018-06-17T05:08:30.826Z,10.30
2018-06-17T05:10:58.560Z,10.27
2018-06-17T05:13:26.366Z,9.80
2018-06-17T05:15:54.381Z,10.30
2018-06-17T05:18:22.131Z,10.73
2018-06-17T05:20:49.869Z,11.90
2018-06-17T05:23:17.628Z,9.10
2018-06-17T05:25:45.454Z,9.47
2018-06-17T05:28:13.194Z,10.43
2018-06-17T05:30:40.992Z,10.20
2018-06-17T05:33:08.762Z,9.77
2018-06-17T05:35:36.630Z,9.60
2018-06-17T05:38:04.835Z,9.80
2018-06-17T05:40:32.557Z,10.13
2018-06-17T05:43:00.327Z,11.07
2018-06-17T05:45:28.139Z,10.83
2018-06-17T05:47:55.865Z,9.77
2018-06-17T05:50:23.622Z,8.70
2018-06-17T05:52:51.346Z,8.70
2018-06-17T05:55:19.086Z,8.43
2018-06-17T05:57:46.833Z,8.33
2018-06-17T06:00:14.567Z,8.67
2018-06-17T06:02:42.602Z,9.60
2018-06-17T06:05:10.371Z,10.00
2018-06-17T06:07:38.134Z,10.40
2018-06-17T06:10:05.996Z,8.17
2018-06-17T06:12:33.695Z,7.90
2018-06-17T06:15:01.508Z,8.17
2018-06-17T06:17:29.278Z,8.40
2018-06-17T06:19:57.085Z,7.80
2018-06-17T06:22:24.867Z,7.03
2018-06-17T06:24:52.612Z,6.77
2018-06-17T06:27:20.383Z,7.40
2018-06-17T06:29:48.178Z,7.00
2018-06-17T06:32:15.822Z,7.07
2018-06-17T06:34:43.664Z,6.87
2018-06-17T06:37:11.425Z,7.53
2018-06-17T06:39:39.155Z,7.57
2018-06-17T06:42:06.950Z,8.77
2018-06-17T06:44:34.678Z,6.23
2018-06-17T06:47:02.366Z,6.33
2018-06-17T06:49:30.071Z,7.00
2018-06-17T06:51:57.899Z,5.73
2018-06-17T06:54:25.627Z,5.63
2018-06-17T06:56:53.470Z,6.10
2018-06-17T06:59:21.357Z,6.10
2018-06-17T07:02:00.562Z,6.30
2018-06-17T07:04:39.610Z,5.50
2018-06-17T07:07:18.694Z,5.73
2018-06-17T07:09:57.892Z,5.90
2018-06-17T07:12:25.733Z,6.40
2018-06-17T07:14:53.461Z,5.83
2018-06-17T07:17:32.638Z,6.87
2018-06-17T07:20:00.777Z,6.97
2018-06-17T07:22:28.530Z,5.53
2018-06-17T07:24:56.310Z,6.07
2018-06-17T07:27:35.491Z,6.07
2018-06-17T07:30:03.398Z,5.43
2018-06-17T07:32:31.194Z,5.40
2018-06-17T07:34:58.990Z,6.20
2018-06-17T07:37:26.825Z,6.70
2018-06-17T07:40:58.357Z,5.77
2018-06-17T07:43:26.051Z,6.10
2018-06-17T07:45:53.976Z,4.93
2018-06-17T07:49:37.170Z,5.07
2018-06-17T07:52:17.170Z,5.80
2018-06-17T07:54:45.376Z,4.33
2018-06-17T07:57:14.336Z,4.50
2018-06-17T07:59:42.210Z,5.13
2018-06-17T08:02:10.440Z,6.00
2018-06-17T08:04:38.242Z,5.07
2018-06-17T08:07:06.235Z,7.13
2018-06-17T08:09:34.073Z,5.70
2018-06-17T08:12:02.162Z,8.03
2018-06-17T08:14:29.870Z,6.27
2018-06-17T08:16:58.039Z,6.23
2018-06-17T08:19:26.847Z,6.70
2018-06-17T08:21:55.444Z,5.63
2018-06-17T08:24:23.289Z,5.40
2018-06-17T08:26:51.163Z,6.90
2018-06-17T08:29:18.907Z,4.90
2018-06-17T08:31:47.150Z,7.57
2018-06-17T08:34:15.050Z,6.57
2018-06-17T08:36:42.970Z,5.53
2018-06-17T08:39:13.113Z,5.47
2018-06-17T08:41:41.761Z,5.70
2018-06-17T08:44:10.094Z,5.67
2018-06-17T08:46:37.874Z,6.20
2018-06-17T08:49:05.981Z,5.33
2018-06-17T08:51:33.770Z,4.83
2018-06-17T08:54:01.596Z,6.47
2018-06-17T08:56:29.716Z,5.67
2018-06-17T08:58:58.680Z,7.27
2018-06-17T09:01:26.501Z,6.63
2018-06-17T09:03:54.441Z,6.33
2018-06-17T09:06:22.829Z,4.30
2018-06-17T09:08:50.676Z,8.87
2018-06-17T09:11:18.546Z,6.73
2018-06-17T09:13:46.444Z,5.93
2018-06-17T09:16:14.218Z,6.40
2018-06-17T09:18:42.041Z,10.30
2018-06-17T09:21:09.887Z,5.30
2018-06-17T09:23:37.627Z,6.77
2018-06-17T09:26:05.410Z,6.67
2018-06-17T09:28:33.149Z,4.33
2018-06-17T09:31:00.962Z,5.70
2018-06-17T09:33:29.392Z,4.30
2018-06-17T09:35:57.367Z,4.20
2018-06-17T09:38:25.118Z,5.93
2018-06-17T09:40:53.177Z,5.40
2018-06-17T09:43:21.190Z,6.07
2018-06-17T09:45:49.032Z,4.57
2018-06-17T09:48:17.038Z,4.80
2018-06-17T09:50:44.963Z,4.57
2018-06-17T09:53:12.818Z,5.70
2018-06-17T09:55:41.054Z,4.77
2018-06-17T09:58:08.917Z,5.97
2018-06-17T10:00:36.747Z,4.60
2018-06-17T10:03:04.571Z,6.20
2018-06-17T10:05:32.325Z,5.13
2018-06-17T10:08:00.139Z,6.47
2018-06-17T10:10:52.545Z,5.77
2018-06-17T10:13:21.268Z,6.37
2018-06-17T10:15:49.470Z,5.57
2018-06-17T10:18:18.005Z,6.20
2018-06-17T10:20:45.876Z,5.93
2018-06-17T10:23:13.787Z,3.80
2018-06-17T10:25:41.638Z,4.77
2018-06-17T10:28:10.066Z,4.70
2018-06-17T10:30:40.020Z,5.70
2018-06-17T10:33:08.774Z,4.37
2018-06-17T10:35:36.767Z,4.97
2018-06-17T10:38:04.652Z,6.10
2018-06-17T10:40:32.475Z,6.50
2018-06-17T10:43:00.365Z,5.13
2018-06-17T10:45:28.186Z,4.67
2018-06-17T10:47:55.956Z,4.50
2018-06-17T10:50:24.082Z,4.63
2018-06-17T10:52:51.868Z,4.03
2018-06-17T10:55:19.786Z,3.50
2018-06-17T10:57:47.551Z,5.20
2018-06-17T11:00:15.430Z,4.20
2018-06-17T11:02:43.193Z,4.50
2018-06-17T11:05:11.086Z,4.90
2018-06-17T11:07:38.931Z,4.30
2018-06-17T11:10:07.937Z,5.17
2018-06-17T11:12:35.763Z,4.20
2018-06-17T11:15:05.114Z,4.03
2018-06-17T11:17:39.046Z,5.00
2018-06-17T11:20:07.428Z,6.17
2018-06-17T11:22:39.898Z,4.40
2018-06-17T11:25:08.077Z,4.20
2018-06-17T11:27:35.993Z,5.20
2018-06-17T11:30:04.242Z,5.57
2018-06-17T11:32:32.219Z,4.07
2018-06-17T11:35:00.115Z,8.47
2018-06-17T11:37:27.877Z,3.77
2018-06-17T11:39:55.775Z,4.40
2018-06-17T11:42:23.593Z,5.87
2018-06-17T11:44:51.360Z,4.40
2018-06-17T11:47:19.393Z,4.70
2018-06-17T11:49:47.193Z,6.53
2018-06-17T11:52:14.980Z,5.00
2018-06-17T11:54:42.748Z,5.50
2018-06-17T11:57:10.655Z,4.20
2018-06-17T11:59:38.443Z,4.10
2018-06-17T12:02:06.306Z,4.57
2018-06-17T12:04:34.303Z,5.00
2018-06-17T12:07:02.114Z,7.50
2018-06-17T12:09:29.882Z,4.63
2018-06-17T12:11:57.753Z,4.43
2018-06-17T12:14:25.552Z,5.37
2018-06-17T12:16:53.375Z,4.63
2018-06-17T12:19:21.247Z,4.87
2018-06-17T12:21:49.082Z,4.33
2018-06-17T12:24:16.874Z,3.97
2018-06-17T12:26:44.689Z,5.77
2018-06-17T12:29:13.407Z,4.43
2018-06-17T12:31:41.261Z,3.50
2018-06-17T12:34:09.300Z,4.60
2018-06-17T12:36:37.141Z,3.70
2018-06-17T12:39:08.500Z,2.87
2018-06-17T12:41:36.423Z,5.50
2018-06-17T12:44:04.516Z,4.90
2018-06-17T12:46:32.306Z,4.20
2018-06-17T12:49:00.069Z,3.40
2018-06-17T12:51:27.811Z,3.70
2018-06-17T12:53:55.618Z,2.80
2018-06-17T12:56:23.975Z,3.13
2018-06-17T12:58:51.779Z,3.77
2018-06-17T13:01:19.830Z,6.20
2018-06-17T13:03:47.568Z,5.03
2018-06-17T13:06:15.346Z,4.00
2018-06-17T13:08:43.251Z,7.80
2018-06-17T13:11:11.008Z,4.17
2018-06-17T13:13:38.733Z,7.20
2018-06-17T13:16:06.693Z,3.10
2018-06-17T13:18:34.548Z,4.30
2018-06-17T13:21:02.416Z,3.40
2018-06-17T13:23:30.190Z,3.90
2018-06-17T13:25:58.015Z,3.90
2018-06-17T13:28:25.854Z,4.27
2018-06-17T13:30:53.816Z,3.77
2018-06-17T13:33:21.585Z,3.50
2018-06-17T13:35:49.507Z,3.60
2018-06-17T13:38:17.303Z,3.70
2018-06-17T13:40:45.126Z,4.83
2018-06-17T13:43:12.952Z,3.90
2018-06-17T13:45:40.899Z,5.87
2018-06-17T13:48:08.785Z,4.27
2018-06-17T13:50:36.518Z,4.20
2018-06-17T13:53:04.302Z,4.10
2018-06-17T13:55:32.026Z,5.50
2018-06-17T13:57:59.933Z,3.60
2018-06-17T14:00:27.732Z,5.60
2018-06-17T14:02:55.493Z,3.63
2018-06-17T14:05:23.359Z,3.73
2018-06-17T14:07:51.131Z,3.90
2018-06-17T14:10:18.826Z,4.47
2018-06-17T14:12:46.581Z,2.80
2018-06-17T14:15:14.398Z,4.73
2018-06-17T14:17:42.139Z,3.83
2018-06-17T14:20:10.131Z,4.20
2018-06-17T14:22:37.865Z,3.20
2018-06-17T14:25:05.724Z,3.73
2018-06-17T14:27:33.657Z,3.83
2018-06-17T14:30:01.743Z,3.07
2018-06-17T14:32:29.610Z,5.07
2018-06-17T14:34:57.389Z,3.20
2018-06-17T14:37:25.214Z,3.87
2018-06-17T14:39:52.965Z,2.67
2018-06-17T14:42:26.214Z,4.23
2018-06-17T14:44:59.609Z,4.10
2018-06-17T14:47:32.801Z,4.40
2018-06-17T14:50:06.124Z,3.57
2018-06-17T14:52:39.529Z,3.73
2018-06-17T14:55:07.482Z,3.73
2018-06-17T14:57:35.282Z,4.13
2018-06-17T15:00:03.174Z,3.67
2018-06-17T15:02:30.989Z,3.80
2018-06-17T15:04:58.814Z,3.50
2018-06-17T15:07:26.827Z,3.90
2018-06-17T15:09:54.670Z,3.57
2018-06-17T15:12:22.468Z,4.20
2018-06-17T15:14:50.220Z,4.00
2018-06-17T15:17:18.193Z,3.40
2018-06-17T15:19:46.053Z,3.10
2018-06-17T15:22:13.855Z,2.80
2018-06-17T15:24:41.617Z,2.80
2018-06-17T15:27:09.416Z,3.80
2018-06-17T15:29:37.194Z,3.20
2018-06-17T15:32:10.529Z,4.63
2018-06-17T15:34:43.827Z,4.30
2018-06-17T15:37:17.219Z,4.60
2018-06-17T15:39:47.965Z,3.27
2018-06-17T15:42:15.885Z,3.13
2018-06-17T15:44:43.830Z,2.73
2018-06-17T15:47:12.345Z,3.23
2018-06-17T15:49:40.571Z,5.00
2018-06-17T15:52:09.917Z,3.07
2018-06-17T15:54:37.870Z,3.87
2018-06-17T15:57:06.237Z,2.90
2018-06-17T15:59:34.505Z,6.80
2018-06-17T16:02:02.199Z,7.30
2018-06-17T16:04:30.000Z,7.00
2018-06-17T16:06:57.890Z,5.37
2018-06-17T16:09:25.744Z,3.80
2018-06-17T16:11:59.132Z,4.70
2018-06-17T16:15:35.368Z,4.27
2018-06-17T16:18:08.730Z,4.60
2018-06-17T16:20:42.114Z,4.17
2018-06-17T16:23:10.052Z,4.10
2018-06-17T16:25:37.970Z,4.83
2018-06-17T16:28:05.765Z,4.33
2018-06-17T16:30:33.673Z,5.67
2018-06-17T16:33:01.615Z,6.47
2018-06-17T16:35:29.394Z,8.10
2018-06-17T16:37:57.186Z,7.90
2018-06-17T16:40:24.936Z,8.03
2018-06-17T16:42:52.761Z,6.73
2018-06-17T16:45:20.586Z,4.87
2018-06-17T16:47:48.592Z,17.73
2018-06-17T16:50:16.345Z,7.40
2018-06-17T16:52:49.694Z,22.17
2018-06-17T16:55:22.957Z,5.53
2018-06-17T16:57:56.338Z,6.90
2018-06-17T17:00:24.294Z,9.87
2018-06-17T17:02:52.058Z,6.73
2018-06-17T17:05:19.961Z,6.87
2018-06-17T17:07:47.858Z,9.93
2018-06-17T17:10:15.704Z,9.33
2018-06-17T17:12:43.648Z,7.23
2018-06-17T17:15:11.850Z,6.50
2018-06-17T17:17:39.807Z,5.70
2018-06-17T17:20:07.605Z,5.80
2018-06-17T17:22:35.458Z,6.60
2018-06-17T17:25:03.348Z,5.83
2018-06-17T17:27:31.178Z,6.27
2018-06-17T17:29:59.035Z,7.23
2018-06-17T17:32:32.491Z,7.90
2018-06-17T17:35:05.829Z,6.20
2018-06-17T17:37:39.108Z,5.83
2018-06-17T17:40:12.724Z,5.30
2018-06-17T17:42:40.795Z,6.17
2018-06-17T17:45:14.902Z,5.87
2018-06-17T17:47:42.656Z,4.73
2018-06-17T17:50:10.515Z,5.00
2018-06-17T17:52:38.423Z,4.60
2018-06-17T17:55:06.310Z,5.50
2018-06-17T17:57:34.259Z,5.07
2018-06-17T18:00:04.418Z,4.83
2018-06-17T18:02:32.271Z,5.53
2018-06-17T18:05:00.081Z,4.50
2018-06-17T18:07:27.874Z,4.10
2018-06-17T18:09:55.789Z,5.60
2018-06-17T18:12:23.730Z,4.83
2018-06-17T18:14:51.506Z,5.03
2018-06-17T18:17:19.395Z,6.20
2018-06-17T18:19:47.211Z,5.23
2018-06-17T18:22:15.657Z,4.43
2018-06-17T18:24:48.035Z,7.60
2018-06-17T18:27:21.595Z,4.40
2018-06-17T18:29:54.840Z,4.33
2018-06-17T18:32:28.238Z,5.63
2018-06-17T18:35:01.739Z,5.20
2018-06-17T18:37:29.623Z,3.97
2018-06-17T18:39:57.376Z,6.10
2018-06-17T18:42:25.292Z,4.67
2018-06-17T18:44:53.166Z,4.50
2018-06-17T18:47:21.036Z,5.67
2018-06-17T18:49:48.827Z,4.20
2018-06-17T18:52:16.652Z,5.30
2018-06-17T18:54:44.623Z,4.80
2018-06-17T18:57:12.474Z,4.07
2018-06-17T18:59:40.385Z,4.63
2018-06-17T19:02:08.232Z,4.43
2018-06-17T19:04:36.023Z,4.37
2018-06-17T19:07:03.889Z,6.00
2018-06-17T19:09:37.427Z,7.13
2018-06-17T19:12:10.857Z,4.43
2018-06-17T19:14:44.185Z,6.87
2018-06-17T19:17:17.523Z,7.20
2018-06-17T19:19:45.330Z,5.70
2018-06-17T19:22:13.210Z,4.93
2018-06-17T19:24:41.010Z,5.10
2018-06-17T19:27:08.886Z,7.73
2018-06-17T19:29:36.569Z,4.40
2018-06-17T19:32:04.396Z,4.33
2018-06-17T19:34:32.171Z,6.87
2018-06-17T19:37:00.024Z,7.17
2018-06-17T19:39:27.894Z,4.67
2018-06-17T19:41:55.730Z,5.23
2018-06-17T19:44:23.510Z,4.60
2018-06-17T19:46:51.379Z,5.43
2018-06-17T19:49:19.320Z,5.50
2018-06-17T19:51:52.785Z,4.90
2018-06-17T19:54:26.303Z,6.87
2018-06-17T19:56:59.707Z,4.60
2018-06-17T19:59:33.253Z,5.60
2018-06-17T20:02:01.214Z,5.53
2018-06-17T20:04:29.066Z,4.50
2018-06-17T20:06:56.889Z,7.70
2018-06-17T20:09:24.745Z,4.43
2018-06-17T20:11:52.582Z,5.80
2018-06-17T20:14:20.402Z,5.80
2018-06-17T20:16:48.493Z,5.20
2018-06-17T20:19:16.281Z,5.77
2018-06-17T20:21:44.164Z,6.73
2018-06-17T20:24:12.117Z,5.20
2018-06-17T20:26:39.965Z,4.90
2018-06-17T20:29:08.797Z,4.87
2018-06-17T20:31:42.215Z,7.60
2018-06-17T20:34:15.474Z,5.20
2018-06-17T20:36:48.868Z,5.63
2018-06-17T20:39:22.495Z,5.30
2018-06-17T20:42:57.858Z,5.60
2018-06-17T20:45:25.783Z,8.93
2018-06-17T20:47:54.250Z,5.47
2018-06-17T20:50:22.396Z,6.83
2018-06-17T20:52:50.425Z,5.53
2018-06-17T20:55:18.564Z,5.80
2018-06-17T20:57:46.344Z,5.47
2018-06-17T21:00:14.226Z,5.63
2018-06-17T21:02:42.182Z,5.20
2018-06-17T21:05:10.192Z,5.80
2018-06-17T21:07:37.971Z,7.63
2018-06-17T21:10:06.221Z,5.10
2018-06-17T21:12:34.060Z,4.47
2018-06-17T21:15:07.350Z,5.93
2018-06-17T21:17:35.234Z,8.27
2018-06-17T21:20:08.727Z,5.93
2018-06-17T21:22:42.226Z,5.67
2018-06-17T21:25:15.738Z,4.80
2018-06-17T21:27:44.822Z,4.80
2018-06-17T21:30:12.633Z,4.80
2018-06-17T21:32:41.062Z,5.87
2018-06-17T21:35:09.423Z,4.90
2018-06-17T21:37:37.262Z,5.70
2018-06-17T21:40:05.174Z,4.77
2018-06-17T21:42:32.957Z,5.67
2018-06-17T21:45:00.746Z,4.83
2018-06-17T21:47:28.499Z,5.57
2018-06-17T21:49:56.264Z,5.37
2018-06-17T21:52:24.108Z,4.90
2018-06-17T21:54:51.888Z,5.87
2018-06-17T21:57:19.738Z,4.93
2018-06-17T21:59:47.590Z,6.50
2018-06-17T22:02:15.473Z,6.43
2018-06-17T22:04:43.320Z,5.23
2018-06-17T22:07:12.493Z,5.77
2018-06-17T22:09:45.836Z,5.50
2018-06-17T22:12:19.384Z,4.80
2018-06-17T22:14:52.769Z,4.93
2018-06-17T22:17:25.980Z,7.07
2018-06-17T22:19:53.771Z,5.20
2018-06-17T22:22:21.534Z,5.23
2018-06-17T22:24:49.219Z,4.97
2018-06-17T22:27:16.959Z,5.37
2018-06-17T22:29:45.155Z,7.87
2018-06-17T22:32:13.008Z,5.70
2018-06-17T22:34:41.012Z,7.03
2018-06-17T22:37:09.006Z,4.63
2018-06-17T22:39:37.550Z,5.53
2018-06-17T22:42:05.582Z,5.97
2018-06-17T22:44:33.311Z,5.10
2018-06-17T22:47:01.312Z,5.47
2018-06-17T22:49:29.086Z,6.17
2018-06-17T22:51:56.837Z,5.73
2018-06-17T22:54:35.826Z,5.77
2018-06-17T22:57:09.117Z,6.13
2018-06-17T22:59:42.487Z,6.30
2018-06-17T23:02:15.710Z,5.87
2018-06-17T23:04:49.141Z,5.30
2018-06-17T23:07:22.646Z,8.40
2018-06-17T23:09:51.200Z,6.00
2018-06-17T23:12:18.926Z,5.80
2018-06-17T23:14:46.658Z,6.23
2018-06-17T23:17:14.490Z,5.40
2018-06-17T23:19:42.329Z,6.20
2018-06-17T23:22:10.058Z,7.23
2018-06-17T23:24:37.851Z,5.60
2018-06-17T23:27:05.695Z,5.80
2018-06-17T23:29:33.394Z,5.53
2018-06-17T23:32:01.181Z,7.30
2018-06-17T23:34:29.055Z,4.80
2018-06-17T23:36:56.943Z,5.60
2018-06-17T23:39:24.667Z,6.93
2018-06-17T23:41:52.620Z,5.33
2018-06-17T23:44:20.416Z,5.23
2018-06-17T23:46:53.737Z,6.03
2018-06-17T23:49:27.083Z,6.70
2018-06-17T23:52:00.342Z,5.80
2018-06-17T23:54:33.917Z,6.23
2018-06-17T23:57:01.790Z,7.20
2018-06-17T23:59:29.612Z,5.67
